createdAt,value
2022-12-08T00:00:53.472Z,79.40
2022-12-08T00:03:20.928Z,79.40
2022-12-08T00:06:08.381Z,79.40
2022-12-08T00:08:55.719Z,79.50
2022-12-08T00:11:22.951Z,79.70
2022-12-08T00:13:50.247Z,79.80
2022-12-08T00:16:17.531Z,80.00
2022-12-08T00:18:44.796Z,80.00
2022-12-08T00:21:12.032Z,80.10
2022-12-08T00:23:40.596Z,80.10
2022-12-08T00:26:08.276Z,80.30
2022-12-08T00:28:35.677Z,80.20
2022-12-08T00:31:08.527Z,80.20
2022-12-08T00:33:35.950Z,80.40
2022-12-08T00:36:06.555Z,80.20
2022-12-08T00:38:34.162Z,80.10
2022-12-08T00:41:02.813Z,80.10
2022-12-08T00:43:30.125Z,79.70
2022-12-08T00:45:57.422Z,79.60
2022-12-08T00:48:24.673Z,79.90
2022-12-08T00:50:51.919Z,80.00
2022-12-08T00:53:19.425Z,80.10
2022-12-08T00:55:46.698Z,80.10
2022-12-08T00:58:15.383Z,79.70
2022-12-08T01:00:43.413Z,79.90
2022-12-08T01:03:10.892Z,79.80
2022-12-08T01:05:38.229Z,79.80
2022-12-08T01:08:06.677Z,80.00
2022-12-08T01:10:35.075Z,79.90
2022-12-08T01:13:02.340Z,79.90
2022-12-08T01:15:30.998Z,79.70
2022-12-08T01:17:58.338Z,79.80
2022-12-08T01:20:25.562Z,79.50
2022-12-08T01:22:52.821Z,79.70
2022-12-08T01:25:20.158Z,79.80
2022-12-08T01:27:47.454Z,79.90
2022-12-08T01:30:14.966Z,79.60
2022-12-08T01:32:43.638Z,79.50
2022-12-08T01:35:10.915Z,79.80
2022-12-08T01:37:38.168Z,79.80
2022-12-08T01:40:07.255Z,79.90
2022-12-08T01:42:34.930Z,79.80
2022-12-08T01:45:06.725Z,79.70
2022-12-08T01:47:37.989Z,79.40
2022-12-08T01:50:11.452Z,79.60
2022-12-08T01:52:42.672Z,79.50
2022-12-08T01:55:17.384Z,79.30
2022-12-08T01:57:49.244Z,79.10
2022-12-08T02:00:19.493Z,79.10
2022-12-08T02:02:54.976Z,79.20
2022-12-08T02:05:27.201Z,78.90
2022-12-08T02:07:57.034Z,79.00
2022-12-08T02:10:28.075Z,79.10
2022-12-08T02:12:58.288Z,79.10
2022-12-08T02:15:37.098Z,78.90
2022-12-08T02:18:17.148Z,78.80
2022-12-08T02:21:00.248Z,79.00
2022-12-08T02:23:36.220Z,78.90
2022-12-08T02:26:35.410Z,79.00
2022-12-08T02:29:21.550Z,78.90
2022-12-08T02:31:58.502Z,79.00
2022-12-08T02:34:31.755Z,79.00
2022-12-08T02:37:06.390Z,79.10
2022-12-08T02:39:40.995Z,79.20
2022-12-08T02:42:12.527Z,79.40
2022-12-08T02:44:45.855Z,79.50
2022-12-08T02:47:16.639Z,79.50
2022-12-08T02:49:45.439Z,79.70
2022-12-08T02:52:39.143Z,79.90
2022-12-08T02:55:11.668Z,80.00
2022-12-08T02:57:48.042Z,80.20
2022-12-08T03:00:18.379Z,80.30
2022-12-08T03:02:57.413Z,80.20
2022-12-08T03:05:41.247Z,80.10
2022-12-08T03:08:15.026Z,80.30
2022-12-08T03:10:45.166Z,80.20
2022-12-08T03:13:15.711Z,80.50
2022-12-08T03:15:46.692Z,81.20
2022-12-08T03:18:16.603Z,81.10
2022-12-08T03:20:47.646Z,81.30
2022-12-08T03:23:17.496Z,81.40
2022-12-08T03:25:56.548Z,81.20
2022-12-08T03:28:24.209Z,81.40
2022-12-08T03:30:57.429Z,81.40
2022-12-08T03:33:26.850Z,81.20
2022-12-08T03:35:56.890Z,81.20
2022-12-08T03:38:24.170Z,80.90
2022-12-08T03:41:09.981Z,81.10
2022-12-08T03:43:37.566Z,81.20
2022-12-08T03:46:05.131Z,80.90
2022-12-08T03:48:32.412Z,81.00
2022-12-08T03:51:00.957Z,80.70
2022-12-08T03:53:28.185Z,80.70
2022-12-08T03:55:55.410Z,80.50
2022-12-08T03:58:22.651Z,80.50
2022-12-08T04:00:49.990Z,80.30
2022-12-08T04:03:17.305Z,80.20
2022-12-08T04:05:44.585Z,80.30
2022-12-08T04:08:13.257Z,80.20
2022-12-08T04:10:40.549Z,80.10
2022-12-08T04:13:07.790Z,80.40
2022-12-08T04:15:35.140Z,80.30
2022-12-08T04:18:02.447Z,80.60
2022-12-08T04:20:29.701Z,80.60
2022-12-08T04:22:56.938Z,80.90
2022-12-08T04:25:25.665Z,81.10
2022-12-08T04:27:52.915Z,81.40
2022-12-08T04:30:20.135Z,81.20
2022-12-08T04:32:47.722Z,81.20
2022-12-08T04:35:15.159Z,81.30
2022-12-08T04:37:44.052Z,81.10
2022-12-08T04:40:12.703Z,81.00
2022-12-08T04:42:41.607Z,80.90
2022-12-08T04:45:09.521Z,80.80
2022-12-08T04:47:36.837Z,81.00
2022-12-08T04:50:05.878Z,81.00
2022-12-08T04:52:33.431Z,80.80
2022-12-08T04:55:00.810Z,80.80
2022-12-08T04:57:28.314Z,80.70
2022-12-08T04:59:56.921Z,80.80
2022-12-08T05:02:24.240Z,80.90
2022-12-08T05:04:51.638Z,80.80
2022-12-08T05:07:18.885Z,80.70
2022-12-08T05:09:46.154Z,80.80
2022-12-08T05:12:13.416Z,81.00
2022-12-08T05:14:40.702Z,80.90
2022-12-08T05:17:09.839Z,81.00
2022-12-08T05:19:37.297Z,80.80
2022-12-08T05:22:04.593Z,81.00
2022-12-08T05:24:32.056Z,81.10
2022-12-08T05:26:59.313Z,81.10
2022-12-08T05:29:26.807Z,80.90
2022-12-08T05:31:54.231Z,81.00
2022-12-08T05:34:22.977Z,81.00
2022-12-08T05:36:50.226Z,80.90
2022-12-08T05:39:17.452Z,80.70
2022-12-08T05:41:44.793Z,81.00
2022-12-08T05:44:12.084Z,81.10
2022-12-08T05:46:39.423Z,81.30
2022-12-08T05:49:06.681Z,81.80
2022-12-08T05:51:35.261Z,81.70
2022-12-08T05:54:02.564Z,82.00
2022-12-08T05:56:29.867Z,82.00
2022-12-08T05:58:57.090Z,81.70
2022-12-08T06:01:27.421Z,81.70
2022-12-08T06:03:55.566Z,81.70
2022-12-08T06:06:22.882Z,81.70
2022-12-08T06:08:51.665Z,81.90
2022-12-08T06:11:20.326Z,82.10
2022-12-08T06:13:47.806Z,81.90
2022-12-08T06:16:15.132Z,81.90
2022-12-08T06:18:42.456Z,82.30
2022-12-08T06:21:12.648Z,82.50
2022-12-08T06:23:39.912Z,82.50
2022-12-08T06:26:11.054Z,82.10
2022-12-08T06:28:38.510Z,82.10
2022-12-08T06:31:08.509Z,82.10
2022-12-08T06:33:36.090Z,82.00
2022-12-08T06:36:03.971Z,81.70
2022-12-08T06:38:31.608Z,81.70
2022-12-08T06:40:59.578Z,81.80
2022-12-08T06:43:28.175Z,81.70
2022-12-08T06:45:55.456Z,81.80
2022-12-08T06:48:23.071Z,81.80
2022-12-08T06:50:50.347Z,81.90
2022-12-08T06:53:17.858Z,82.40
2022-12-08T06:56:01.112Z,82.30
2022-12-08T06:58:29.897Z,82.50
2022-12-08T07:00:57.495Z,82.40
2022-12-08T07:03:24.841Z,82.30
2022-12-08T07:06:00.243Z,82.10
2022-12-08T07:08:31.117Z,82.30
2022-12-08T07:10:58.555Z,82.50
2022-12-08T07:13:25.855Z,82.70
2022-12-08T07:15:54.486Z,82.80
2022-12-08T07:18:21.724Z,82.70
2022-12-08T07:20:48.975Z,82.60
2022-12-08T07:23:16.264Z,82.80
2022-12-08T07:25:45.847Z,82.90
2022-12-08T07:28:13.119Z,82.80
2022-12-08T07:30:40.445Z,83.20
2022-12-08T07:33:09.039Z,83.10
2022-12-08T07:35:36.370Z,82.90
2022-12-08T07:38:03.636Z,82.90
2022-12-08T07:40:30.865Z,82.90
2022-12-08T07:42:59.245Z,82.70
2022-12-08T07:45:31.406Z,82.30
2022-12-08T07:47:59.198Z,82.50
2022-12-08T07:50:27.862Z,82.30
2022-12-08T07:52:55.207Z,82.30
2022-12-08T07:55:22.532Z,82.30
2022-12-08T07:57:50.326Z,82.40
2022-12-08T08:00:18.722Z,82.40
2022-12-08T08:02:46.157Z,82.50
2022-12-08T08:05:13.726Z,82.40
2022-12-08T08:07:43.659Z,82.50
2022-12-08T08:10:11.475Z,82.30
2022-12-08T08:12:38.876Z,82.20
2022-12-08T08:15:08.689Z,82.20
2022-12-08T08:17:37.215Z,82.20
2022-12-08T08:20:07.175Z,82.10
2022-12-08T08:22:35.372Z,81.80
2022-12-08T08:25:04.464Z,82.00
2022-12-08T08:27:32.920Z,82.20
2022-12-08T08:30:00.354Z,82.00
2022-12-08T08:32:27.630Z,82.20
2022-12-08T08:34:54.873Z,82.20
2022-12-08T08:37:22.163Z,82.00
2022-12-08T08:39:49.449Z,81.70
2022-12-08T08:42:18.032Z,81.70
2022-12-08T08:44:45.348Z,82.10
2022-12-08T08:47:12.585Z,81.90
2022-12-08T08:49:39.973Z,81.70
2022-12-08T08:52:07.537Z,82.10
2022-12-08T08:54:35.504Z,81.90
2022-12-08T08:57:03.288Z,82.10
2022-12-08T08:59:31.944Z,81.80
2022-12-08T09:01:59.314Z,81.90
2022-12-08T09:04:26.776Z,81.90
2022-12-08T09:06:54.061Z,82.00
2022-12-08T09:09:21.340Z,81.90
2022-12-08T09:11:48.863Z,81.80
2022-12-08T09:14:16.167Z,81.50
2022-12-08T09:16:44.853Z,81.90
2022-12-08T09:19:12.202Z,81.80
2022-12-08T09:21:39.880Z,81.70
2022-12-08T09:24:10.488Z,81.50
2022-12-08T09:26:37.737Z,81.90
2022-12-08T09:29:05.059Z,81.70
2022-12-08T09:31:32.377Z,81.80
2022-12-08T09:34:01.075Z,81.40
2022-12-08T09:36:29.191Z,81.50
2022-12-08T09:38:56.754Z,80.90
2022-12-08T09:41:36.539Z,81.10
2022-12-08T09:44:29.481Z,80.90
2022-12-08T09:46:58.704Z,80.70
2022-12-08T09:49:35.944Z,80.60
2022-12-08T09:52:04.554Z,80.30
2022-12-08T09:54:34.373Z,80.20
2022-12-08T09:57:06.397Z,80.10
2022-12-08T09:59:35.172Z,80.10
2022-12-08T10:02:13.469Z,79.90
2022-12-08T10:04:42.283Z,79.90
2022-12-08T10:07:16.243Z,79.90
2022-12-08T10:09:49.391Z,80.10
2022-12-08T10:12:22.160Z,80.10
2022-12-08T10:15:00.120Z,80.10
2022-12-08T10:17:34.395Z,80.10
2022-12-08T10:20:12.177Z,79.70
2022-12-08T10:22:44.555Z,79.70
2022-12-08T10:25:16.911Z,79.80
2022-12-08T10:27:46.914Z,79.70
2022-12-08T10:30:17.006Z,79.70
2022-12-08T10:32:46.454Z,79.70
2022-12-08T10:35:17.624Z,80.00
2022-12-08T10:37:56.204Z,80.00
2022-12-08T10:40:24.418Z,79.70
2022-12-08T10:42:54.427Z,79.80
2022-12-08T10:45:25.591Z,79.70
2022-12-08T10:48:14.560Z,79.90
2022-12-08T10:50:45.007Z,79.60
2022-12-08T10:53:14.571Z,79.40
2022-12-08T10:55:44.316Z,79.50
2022-12-08T10:58:32.879Z,79.50
2022-12-08T11:01:04.817Z,79.50
2022-12-08T11:03:36.656Z,80.10
2022-12-08T11:06:15.619Z,80.00
2022-12-08T11:08:51.716Z,80.20
2022-12-08T11:11:24.331Z,79.90
2022-12-08T11:13:54.922Z,80.00
2022-12-08T11:16:23.574Z,79.60
2022-12-08T11:18:56.787Z,80.20
2022-12-08T11:21:35.731Z,79.60
2022-12-08T11:24:20.890Z,80.00
2022-12-08T11:26:51.755Z,80.20
2022-12-08T11:29:19.341Z,80.10
2022-12-08T11:31:52.016Z,79.90
2022-12-08T11:34:23.440Z,80.10
2022-12-08T11:36:54.211Z,80.10
2022-12-08T11:39:22.599Z,79.90
2022-12-08T11:41:53.219Z,79.90
2022-12-08T11:44:29.465Z,80.00
2022-12-08T11:46:59.870Z,79.90
2022-12-08T11:49:34.461Z,80.20
2022-12-08T11:52:12.102Z,80.40
2022-12-08T11:54:45.235Z,80.70
2022-12-08T11:57:16.486Z,80.50
2022-12-08T11:59:46.811Z,80.60
2022-12-08T12:02:18.126Z,80.70
2022-12-08T12:04:52.591Z,80.50
2022-12-08T12:07:48.764Z,80.80
2022-12-08T12:10:48.855Z,80.90
2022-12-08T12:13:32.674Z,80.80
2022-12-08T12:16:25.886Z,80.90
2022-12-08T12:18:57.854Z,81.20
2022-12-08T12:21:30.699Z,81.20
2022-12-08T12:24:04.684Z,80.90
2022-12-08T12:26:37.592Z,81.00
2022-12-08T12:29:08.209Z,80.70
2022-12-08T12:31:41.601Z,80.90
2022-12-08T12:34:15.118Z,81.10
2022-12-08T12:36:50.630Z,80.90
2022-12-08T12:39:23.309Z,80.80
2022-12-08T12:41:53.887Z,80.60
2022-12-08T12:44:39.558Z,80.70
2022-12-08T12:47:12.042Z,80.90
2022-12-08T12:50:04.335Z,80.90
2022-12-08T12:52:47.911Z,81.00
2022-12-08T12:55:54.128Z,81.30
2022-12-08T12:58:36.476Z,81.30
2022-12-08T13:01:51.670Z,81.00
2022-12-08T13:04:19.680Z,80.90
2022-12-08T13:06:50.122Z,80.70
2022-12-08T13:09:29.880Z,81.00
2022-12-08T13:11:59.791Z,80.70
2022-12-08T13:14:44.497Z,80.40
2022-12-08T13:17:15.505Z,80.80
2022-12-08T13:19:51.553Z,80.70
2022-12-08T13:23:00.718Z,80.60
2022-12-08T13:25:49.679Z,80.70
2022-12-08T13:28:20.503Z,80.30
2022-12-08T13:30:50.198Z,80.00
2022-12-08T13:33:26.135Z,80.20
2022-12-08T13:36:11.726Z,80.00
2022-12-08T13:38:39.460Z,80.20
2022-12-08T13:41:12.917Z,80.10
2022-12-08T13:44:10.289Z,80.10
2022-12-08T13:58:18.001Z,80.00
2022-12-08T14:00:55.584Z,80.10
2022-12-08T14:03:24.313Z,80.10
2022-12-08T14:11:35.930Z,80.00
2022-12-08T14:14:06.025Z,80.10
2022-12-08T14:16:41.636Z,79.90
2022-12-08T14:19:18.609Z,79.90
2022-12-08T14:21:54.186Z,79.80
2022-12-08T14:24:22.807Z,79.70
2022-12-08T14:26:53.448Z,79.50
2022-12-08T14:29:42.122Z,79.60
2022-12-08T14:32:25.607Z,79.50
2022-12-08T14:34:58.556Z,79.80
2022-12-08T14:37:27.529Z,79.70
2022-12-08T14:39:59.739Z,79.80
2022-12-08T14:42:27.998Z,79.90
2022-12-08T14:45:00.679Z,79.60
2022-12-08T14:47:33.313Z,79.70
2022-12-08T14:50:04.937Z,79.80
2022-12-08T14:52:32.640Z,79.60
2022-12-08T14:55:01.508Z,79.80
2022-12-08T14:57:35.557Z,79.80
2022-12-08T15:00:18.706Z,79.40
2022-12-08T15:03:03.907Z,79.50
2022-12-08T15:05:56.036Z,79.70
2022-12-08T15:08:33.435Z,79.70
2022-12-08T15:11:38.493Z,79.80
2022-12-08T15:14:28.675Z,79.50
2022-12-08T15:16:57.073Z,79.80
2022-12-08T15:19:32.401Z,79.40
2022-12-08T15:22:12.175Z,79.50
2022-12-08T15:24:45.164Z,79.50
2022-12-08T15:27:19.052Z,79.20
2022-12-08T15:29:49.583Z,79.00
2022-12-08T15:32:19.566Z,79.20
2022-12-08T15:34:47.223Z,79.10
2022-12-08T15:37:21.469Z,79.10
2022-12-08T15:39:48.932Z,78.40
2022-12-08T15:42:16.623Z,78.70
2022-12-08T15:44:44.300Z,79.00
2022-12-08T15:47:16.557Z,79.00
2022-12-08T15:49:44.251Z,79.00
2022-12-08T15:52:16.655Z,78.90
2022-12-08T15:54:46.712Z,79.00
2022-12-08T15:57:40.277Z,79.00
2022-12-08T16:09:17.384Z,78.40
2022-12-08T16:12:15.803Z,78.70
2022-12-08T16:17:34.533Z,78.20
2022-12-08T16:20:03.595Z,78.40
2022-12-08T16:25:21.452Z,78.40
2022-12-08T16:28:05.250Z,78.30
2022-12-08T16:30:39.781Z,78.40
2022-12-08T16:33:07.169Z,78.40
2022-12-08T16:35:34.532Z,78.30
2022-12-08T16:38:01.907Z,78.30
2022-12-08T16:40:29.311Z,78.50
2022-12-08T16:42:57.944Z,78.50
2022-12-08T16:45:27.832Z,78.50
2022-12-08T16:47:57.188Z,78.40
2022-12-08T16:50:26.892Z,78.30
2022-12-08T16:52:57.129Z,78.20
2022-12-08T16:55:25.006Z,78.40
2022-12-08T16:57:52.604Z,78.30
2022-12-08T17:00:24.343Z,78.40
2022-12-08T17:02:52.999Z,78.10
2022-12-08T17:05:23.256Z,78.00
2022-12-08T17:07:56.594Z,77.80
2022-12-08T17:10:27.950Z,77.90
2022-12-08T17:12:55.857Z,77.90
2022-12-08T17:15:26.008Z,78.10
2022-12-08T17:17:54.001Z,78.00
2022-12-08T17:20:25.504Z,77.90
2022-12-08T17:22:54.121Z,78.00
2022-12-08T17:25:21.513Z,77.90
2022-12-08T17:27:48.795Z,78.20
2022-12-08T17:30:17.699Z,78.20
2022-12-08T17:32:46.437Z,78.20
2022-12-08T17:35:14.302Z,78.10
2022-12-08T17:37:43.230Z,78.20
2022-12-08T17:40:11.530Z,78.20
2022-12-08T17:42:39.422Z,78.30
2022-12-08T17:45:08.229Z,78.40
2022-12-08T17:47:36.324Z,78.50
2022-12-08T17:50:06.685Z,78.50
2022-12-08T17:52:34.210Z,78.40
2022-12-08T17:55:01.596Z,78.30
2022-12-08T17:57:28.862Z,78.20
2022-12-08T17:59:56.242Z,78.20
2022-12-08T18:02:23.758Z,78.10
2022-12-08T18:04:51.054Z,78.10
2022-12-08T18:07:19.655Z,78.10
2022-12-08T18:09:46.956Z,78.40
2022-12-08T18:12:16.942Z,78.30
2022-12-08T18:14:46.710Z,78.50
2022-12-08T18:17:14.050Z,78.40
2022-12-08T18:19:41.349Z,78.30
2022-12-08T18:22:09.090Z,78.20
2022-12-08T18:24:37.727Z,78.20
2022-12-08T18:27:05.339Z,78.30
2022-12-08T18:29:32.776Z,78.40
2022-12-08T18:32:00.186Z,78.40
2022-12-08T18:34:27.548Z,78.40
2022-12-08T18:36:54.860Z,78.20
2022-12-08T18:39:25.234Z,78.30
2022-12-08T18:41:54.473Z,78.30
2022-12-08T18:44:21.786Z,78.20
2022-12-08T18:46:49.330Z,78.40
2022-12-08T18:49:19.134Z,78.40
2022-12-08T18:51:46.644Z,78.30
2022-12-08T18:54:14.345Z,78.40
2022-12-08T18:56:41.643Z,78.40
2022-12-08T18:59:15.387Z,78.50
2022-12-08T19:01:45.674Z,78.50
2022-12-08T19:04:29.231Z,78.50
2022-12-08T19:06:57.458Z,78.70
2022-12-08T19:09:26.837Z,78.70
2022-12-08T19:11:55.109Z,78.70
2022-12-08T19:14:27.776Z,78.70
2022-12-08T19:16:56.464Z,78.80
2022-12-08T19:19:23.876Z,78.80
2022-12-08T19:21:51.239Z,78.80
2022-12-08T19:24:19.048Z,78.80
2022-12-08T19:26:46.370Z,79.00
2022-12-08T19:29:13.891Z,79.10
2022-12-08T19:31:42.750Z,79.20
2022-12-08T19:34:11.741Z,79.10
2022-12-08T19:36:42.471Z,79.30
2022-12-08T19:39:33.333Z,79.60
2022-12-08T19:42:19.960Z,79.70
2022-12-08T19:44:53.215Z,79.60
2022-12-08T19:47:22.831Z,79.20
2022-12-08T19:49:50.341Z,79.30
2022-12-08T19:52:18.019Z,79.20
2022-12-08T19:54:45.387Z,78.90
2022-12-08T19:57:12.698Z,78.70
2022-12-08T19:59:40.181Z,78.20
2022-12-08T20:02:07.884Z,77.70
2022-12-08T20:04:36.563Z,77.50
2022-12-08T20:07:04.194Z,77.50
2022-12-08T20:09:31.545Z,77.20
2022-12-08T20:11:58.843Z,77.10
2022-12-08T20:14:26.118Z,77.00
2022-12-08T20:16:53.505Z,76.90
2022-12-08T20:19:20.954Z,76.60
2022-12-08T20:21:50.964Z,76.50
2022-12-08T20:24:18.352Z,76.40
2022-12-08T20:26:45.646Z,76.10
2022-12-08T20:29:16.797Z,76.20
2022-12-08T20:31:44.478Z,76.10
2022-12-08T20:34:14.047Z,75.90
2022-12-08T20:36:41.418Z,75.90
2022-12-08T20:39:12.595Z,75.70
2022-12-08T20:41:39.903Z,75.80
2022-12-08T20:44:07.686Z,75.90
2022-12-08T20:46:35.156Z,76.00
2022-12-08T20:49:04.215Z,76.10
2022-12-08T20:51:32.942Z,76.00
2022-12-08T20:54:00.926Z,75.90
2022-12-08T20:56:31.683Z,75.80
2022-12-08T20:58:59.307Z,75.90
2022-12-08T21:01:26.864Z,75.90
2022-12-08T21:03:55.001Z,76.10
2022-12-08T21:06:24.507Z,76.00
2022-12-08T21:08:52.210Z,76.10
2022-12-08T21:11:19.774Z,76.30
2022-12-08T21:13:48.568Z,76.20
2022-12-08T21:16:16.482Z,76.20
2022-12-08T21:18:43.825Z,76.40
2022-12-08T21:21:14.262Z,76.30
2022-12-08T21:23:42.526Z,76.50
2022-12-08T21:26:12.082Z,76.60
2022-12-08T21:28:39.744Z,76.70
2022-12-08T21:31:09.466Z,76.80
2022-12-08T21:33:37.628Z,77.00
2022-12-08T21:36:09.838Z,76.80
2022-12-08T21:38:38.181Z,76.80
2022-12-08T21:41:07.966Z,76.80
2022-12-08T21:43:35.754Z,76.90
2022-12-08T21:46:03.054Z,76.70
2022-12-08T21:48:31.853Z,76.70
2022-12-08T21:51:04.346Z,76.60
2022-12-08T21:53:32.009Z,76.50
2022-12-08T21:55:59.486Z,76.60
2022-12-08T21:58:26.847Z,76.60
2022-12-08T22:00:54.313Z,76.70
2022-12-08T22:03:22.015Z,76.80
2022-12-08T22:05:50.834Z,76.70
2022-12-08T22:08:18.219Z,76.80
2022-12-08T22:10:47.639Z,76.90
2022-12-08T22:13:14.949Z,76.90
2022-12-08T22:15:42.257Z,76.90
2022-12-08T22:18:11.323Z,77.20
2022-12-08T22:20:43.890Z,77.10
2022-12-08T22:23:13.323Z,76.90
2022-12-08T22:25:40.948Z,76.80
2022-12-08T22:28:08.442Z,76.70
2022-12-08T22:30:39.231Z,76.50
2022-12-08T22:33:07.009Z,76.60
2022-12-08T22:35:34.400Z,76.50
2022-12-08T22:38:01.768Z,76.40
2022-12-08T22:40:30.560Z,76.30
2022-12-08T22:42:57.987Z,76.30
2022-12-08T22:45:25.370Z,76.30
2022-12-08T22:47:52.852Z,76.40
2022-12-08T22:50:20.250Z,76.30
2022-12-08T22:52:47.573Z,76.40
2022-12-08T22:55:14.970Z,76.40
2022-12-08T22:57:43.664Z,76.40
2022-12-08T23:00:12.731Z,76.60
2022-12-08T23:02:40.280Z,76.50
2022-12-08T23:05:08.575Z,76.40
2022-12-08T23:07:36.020Z,76.10
2022-12-08T23:10:04.942Z,76.00
2022-12-08T23:12:33.247Z,76.10
2022-12-08T23:15:02.118Z,76.40
2022-12-08T23:17:29.490Z,76.20
2022-12-08T23:19:56.815Z,76.20
2022-12-08T23:22:24.974Z,76.10
2022-12-08T23:24:52.308Z,76.30
2022-12-08T23:27:19.608Z,76.20
2022-12-08T23:29:46.850Z,76.30
2022-12-08T23:32:15.493Z,76.20
2022-12-08T23:34:43.103Z,76.50
2022-12-08T23:37:10.359Z,76.60
2022-12-08T23:39:38.173Z,76.40
2022-12-08T23:42:05.876Z,76.40
2022-12-08T23:44:33.309Z,76.40
2022-12-08T23:47:00.875Z,76.50
2022-12-08T23:49:29.739Z,76.60
2022-12-08T23:51:57.220Z,76.80
2022-12-08T23:54:24.482Z,77.00
2022-12-08T23:56:51.793Z,77.40
2022-12-08T23:59:19.367Z,77.60
